Time;durP1;ratioP1;P1;durP2;ratioP2;P2;SDS_P1;SDS_P2;PMS_P1;PMS_P2;Temp;Humidity;BMP_temperature;BMP_pressure;BME280_temperature;BME280_humidity;BME280_pressure;Samples;Min_cycle;Max_cycle;Signal;HPM_P1;HPM_P2
2023/10/29 00:00:13;;;;;;;3.25;2.03;;;10.20;99.90;;;;;;4964279;28;20210;-68
2023/10/29 00:02:40;;;;;;;2.70;1.90;;;10.30;99.90;;;;;;4937315;28;20243;-68
2023/10/29 00:05:07;;;;;;;3.13;2.10;;;10.30;99.90;;;;;;4973106;28;20214;-68
2023/10/29 00:10:17;;;;;;;2.75;1.85;;;10.30;99.90;;;;;;5012358;27;20629;-68
2023/10/29 00:12:44;;;;;;;4.20;1.88;;;10.40;99.90;;;;;;5031724;28;20803;-68
2023/10/29 00:15:11;;;;;;;4.90;1.67;;;10.30;99.90;;;;;;5033160;28;21187;-67
2023/10/29 00:17:38;;;;;;;4.47;1.80;;;10.40;99.90;;;;;;4995200;28;20574;-68
2023/10/29 00:20:06;;;;;;;2.30;1.80;;;10.40;99.90;;;;;;5032575;28;20666;-68
2023/10/29 00:22:33;;;;;;;2.83;2.00;;;10.40;99.90;;;;;;5021505;28;20220;-68
2023/10/29 00:25:00;;;;;;;2.22;1.60;;;10.40;99.90;;;;;;5024036;28;20201;-68
2023/10/29 00:27:28;;;;;;;2.85;1.60;;;10.40;99.90;;;;;;5022310;28;20804;-68
2023/10/29 00:29:55;;;;;;;1.73;1.58;;;;;;;;;;5034644;28;20703;-68
2023/10/29 00:32:22;;;;;;;3.42;1.90;;;10.40;99.90;;;;;;5015028;28;20197;-68
2023/10/29 00:34:49;;;;;;;2.53;1.40;;;10.30;99.90;;;;;;5018756;28;20694;-67
2023/10/29 00:37:17;;;;;;;3.15;1.77;;;;;;;;;;5034431;28;20197;-68
2023/10/29 00:39:44;;;;;;;2.00;1.67;;;10.40;99.90;;;;;;5015177;28;20210;-68
2023/10/29 00:42:11;;;;;;;5.68;2.00;;;10.40;99.90;;;;;;5022559;28;20204;-68
2023/10/29 00:44:40;;;;;;;3.30;1.63;;;10.50;99.90;;;;;;5023446;28;20193;-68
2023/10/29 00:47:07;;;;;;;4.10;1.67;;;10.60;99.90;;;;;;5027986;28;20193;-68
2023/10/29 00:49:34;;;;;;;2.33;1.88;;;10.30;99.90;;;;;;4979551;28;20438;-68
2023/10/29 00:52:02;;;;;;;2.60;1.80;;;10.60;99.90;;;;;;5013724;28;21106;-68
2023/10/29 00:54:29;;;;;;;5.60;1.80;;;10.60;99.90;;;;;;5000851;28;20205;-68
2023/10/29 00:56:55;;;;;;;6.07;2.08;;;10.50;99.90;;;;;;5020488;28;20587;-68
2023/10/29 00:59:22;;;;;;;2.20;1.45;;;10.60;99.90;;;;;;5024406;28;20204;-68
2023/10/29 01:01:51;;;;;;;6.63;1.90;;;10.60;99.90;;;;;;5024830;28;20783;-68
2023/10/29 01:04:18;;;;;;;2.35;1.73;;;10.60;99.90;;;;;;4993222;28;20878;-68
2023/10/29 01:06:46;;;;;;;3.10;1.92;;;10.70;99.90;;;;;;5006644;28;20205;-68
2023/10/29 01:09:13;;;;;;;3.10;1.73;;;10.60;99.90;;;;;;5014296;28;20233;-68
2023/10/29 01:11:40;;;;;;;3.20;1.80;;;10.60;99.90;;;;;;5007768;28;20193;-68
2023/10/29 01:14:07;;;;;;;2.50;1.73;;;10.70;99.90;;;;;;5018172;28;20225;-68
2023/10/29 01:16:33;;;;;;;2.15;1.95;;;10.80;99.90;;;;;;5024979;28;20199;-68
2023/10/29 01:19:02;;;;;;;3.00;1.88;;;10.70;99.90;;;;;;5000148;28;20541;-68
2023/10/29 01:21:29;;;;;;;2.33;1.50;;;10.80;99.90;;;;;;5002772;28;20205;-68
2023/10/29 01:23:56;;;;;;;3.13;2.22;;;11.00;99.90;;;;;;4999873;28;20415;-68
2023/10/29 01:26:24;;;;;;;2.55;2.10;;;10.80;99.90;;;;;;4994181;28;20209;-68
2023/10/29 01:28:51;;;;;;;2.95;1.65;;;10.40;99.90;;;;;;5005741;28;20225;-68
2023/10/29 01:31:17;;;;;;;3.33;2.05;;;10.80;99.90;;;;;;5016386;28;20198;-68
2023/10/29 01:33:44;;;;;;;2.75;1.88;;;10.70;99.90;;;;;;5011431;28;20197;-68
2023/10/29 01:36:12;;;;;;;3.97;2.17;;;10.90;99.90;;;;;;4991169;28;20690;-68
2023/10/29 01:38:39;;;;;;;3.85;2.30;;;10.90;99.90;;;;;;4980956;28;20237;-68
2023/10/29 01:41:06;;;;;;;4.18;2.15;;;10.80;99.90;;;;;;4997117;28;20225;-68
2023/10/29 01:43:33;;;;;;;8.32;2.45;;;10.90;99.90;;;;;;4999471;28;20425;-68
2023/10/29 01:46:00;;;;;;;5.60;1.95;;;11.00;99.90;;;;;;5014711;28;20216;-68
2023/10/29 01:48:27;;;;;;;4.05;2.33;;;10.90;99.90;;;;;;5011918;28;20666;-68
2023/10/29 01:50:55;;;;;;;2.90;2.05;;;;;;;;;;4983297;28;20209;-68
2023/10/29 01:53:24;;;;;;;3.30;2.33;;;11.00;99.90;;;;;;5003770;28;20288;-68
2023/10/29 01:55:50;;;;;;;2.85;2.22;;;11.00;99.90;;;;;;5001224;28;20889;-68
2023/10/29 01:58:17;;;;;;;2.45;2.00;;;11.50;99.90;;;;;;4993873;28;20413;-68
2023/10/29 02:00:44;;;;;;;3.25;1.63;;;11.00;99.90;;;;;;5013958;28;20202;-68
2023/10/29 02:03:11;;;;;;;3.08;2.10;;;11.00;99.90;;;;;;5009227;28;20975;-68
2023/10/29 02:05:38;;;;;;;2.08;1.85;;;11.00;99.90;;;;;;4984689;28;20586;-68
2023/10/29 02:08:05;;;;;;;5.22;3.20;;;11.90;99.90;;;;;;5001995;28;20713;-68
2023/10/29 02:10:33;;;;;;;6.82;2.13;;;11.00;99.90;;;;;;5005648;28;20241;-68
2023/10/29 02:13:00;;;;;;;2.45;2.08;;;11.10;99.90;;;;;;4997124;28;20206;-68
2023/10/29 02:15:27;;;;;;;2.63;1.90;;;11.10;99.90;;;;;;5007348;28;20726;-68
2023/10/29 02:17:54;;;;;;;4.38;1.55;;;11.10;99.90;;;;;;5019939;28;20251;-68
2023/10/29 02:20:21;;;;;;;3.70;1.60;;;11.10;99.90;;;;;;5011276;28;20521;-68
2023/10/29 02:22:49;;;;;;;4.70;1.80;;;11.20;99.90;;;;;;4983328;28;20222;-68
2023/10/29 02:25:16;;;;;;;2.80;1.80;;;11.10;99.90;;;;;;4999316;28;20680;-68
2023/10/29 02:27:43;;;;;;;2.88;1.90;;;11.20;99.90;;;;;;4983493;28;20415;-68
2023/10/29 02:30:12;;;;;;;2.55;1.77;;;11.10;99.90;;;;;;5002951;28;20376;-68
2023/10/29 02:32:38;;;;;;;2.38;1.80;;;11.20;99.90;;;;;;5013849;28;20380;-68
2023/10/29 02:35:07;;;;;;;3.20;1.80;;;11.20;99.90;;;;;;5017899;28;20306;-68
2023/10/29 02:37:34;;;;;;;1.73;1.40;;;11.30;99.90;;;;;;4980552;28;20269;-68
2023/10/29 02:40:03;;;;;;;2.53;1.65;;;11.30;99.90;;;;;;5005469;28;20226;-68
2023/10/29 02:42:29;;;;;;;1.77;1.58;;;11.30;99.90;;;;;;4994618;28;20202;-68
2023/10/29 02:44:58;;;;;;;2.45;1.90;;;11.40;99.90;;;;;;4996144;28;20991;-68
2023/10/29 02:47:25;;;;;;;2.15;1.63;;;11.20;99.90;;;;;;5009149;28;20219;-68
2023/10/29 02:49:52;;;;;;;2.22;1.73;;;11.30;99.90;;;;;;5003864;28;20226;-68
2023/10/29 02:52:18;;;;;;;2.85;2.03;;;11.30;99.90;;;;;;4980104;28;20221;-68
2023/10/29 02:54:45;;;;;;;2.42;1.90;;;11.40;99.90;;;;;;5004889;28;20424;-68
2023/10/29 02:57:14;;;;;;;2.92;2.08;;;11.40;99.90;;;;;;5003920;28;20210;-68
2023/10/29 02:59:41;;;;;;;2.63;1.77;;;11.40;99.90;;;;;;5002432;28;20204;-68
2023/10/29 03:02:08;;;;;;;2.90;1.60;;;11.50;99.90;;;;;;5007884;28;20671;-68
2023/10/29 03:04:34;;;;;;;3.35;1.88;;;11.40;99.90;;;;;;5007512;28;20501;-68
2023/10/29 03:07:01;;;;;;;3.50;1.80;;;11.50;99.90;;;;;;4979001;28;20224;-68
2023/10/29 03:09:28;;;;;;;4.78;1.98;;;11.40;99.90;;;;;;5011318;28;20244;-68
2023/10/29 03:11:55;;;;;;;3.65;1.77;;;11.80;99.90;;;;;;5005491;28;20206;-68
2023/10/29 03:14:23;;;;;;;2.38;1.60;;;11.50;99.90;;;;;;4993342;28;20204;-69
2023/10/29 03:16:50;;;;;;;4.72;2.13;;;11.40;99.90;;;;;;5005319;28;20785;-68
2023/10/29 03:19:17;;;;;;;1.98;1.42;;;11.70;99.90;;;;;;5011115;28;20194;-68
2023/10/29 03:21:43;;;;;;;2.22;1.50;;;11.50;99.90;;;;;;4980537;28;20332;-69
2023/10/29 03:24:10;;;;;;;3.97;1.73;;;11.50;99.90;;;;;;5013579;28;20202;-69
2023/10/29 03:26:37;;;;;;;4.65;2.22;;;11.50;99.90;;;;;;5001830;28;20201;-68
2023/10/29 03:29:03;;;;;;;2.45;1.95;;;12.00;99.90;;;;;;5008155;28;20729;-68
2023/10/29 03:31:31;;;;;;;4.10;2.30;;;11.50;99.90;;;;;;5009495;28;20232;-69
2023/10/29 03:33:58;;;;;;;3.65;1.83;;;11.50;99.90;;;;;;5012125;28;20554;-68
2023/10/29 03:36:25;;;;;;;2.97;1.80;;;11.10;99.90;;;;;;5014771;28;20204;-68
2023/10/29 03:38:52;;;;;;;2.53;1.60;;;11.50;99.90;;;;;;4987324;28;20718;-68
2023/10/29 03:41:21;;;;;;;2.00;1.70;;;11.60;99.90;;;;;;5009913;28;20216;-68
2023/10/29 03:43:48;;;;;;;2.75;1.50;;;11.50;99.90;;;;;;4996999;28;20198;-69
2023/10/29 03:46:15;;;;;;;5.63;2.03;;;11.50;99.90;;;;;;5003805;28;20202;-68
2023/10/29 03:48:45;;;;;;;2.13;1.67;;;11.50;99.90;;;;;;5017154;28;20198;-68
2023/10/29 03:51:12;;;;;;;1.80;1.50;;;11.50;99.90;;;;;;5011463;28;20353;-68
2023/10/29 03:53:39;;;;;;;2.60;1.80;;;11.60;99.90;;;;;;4986810;28;20217;-69
2023/10/29 03:56:08;;;;;;;1.60;1.40;;;11.60;99.90;;;;;;5012745;28;20399;-68
2023/10/29 03:58:35;;;;;;;3.72;1.65;;;11.60;99.90;;;;;;4998438;28;20198;-68
2023/10/29 04:01:02;;;;;;;2.10;1.88;;;11.60;99.90;;;;;;4990586;28;23024;-68
2023/10/29 04:03:29;;;;;;;1.40;1.30;;;11.60;99.90;;;;;;5005382;28;20204;-69
2023/10/29 04:05:57;;;;;;;3.03;1.30;;;11.60;99.90;;;;;;4994626;28;20206;-69
2023/10/29 04:08:24;;;;;;;1.83;1.45;;;11.60;99.90;;;;;;5002486;28;20391;-68
2023/10/29 04:10:51;;;;;;;3.22;1.73;;;11.50;99.90;;;;;;4982301;28;20256;-68
2023/10/29 04:13:18;;;;;;;1.30;1.15;;;11.60;99.90;;;;;;4991653;28;20221;-69
2023/10/29 04:15:45;;;;;;;2.72;1.20;;;11.60;99.90;;;;;;4995782;28;20202;-68
2023/10/29 04:18:12;;;;;;;1.70;1.20;;;11.60;99.90;;;;;;4995669;28;20247;-68
2023/10/29 04:20:39;;;;;;;1.10;1.05;;;11.50;99.90;;;;;;5006194;28;20202;-69
2023/10/29 04:23:07;;;;;;;2.40;1.27;;;11.80;99.90;;;;;;5008046;28;20205;-68
2023/10/29 04:25:33;;;;;;;1.30;1.20;;;11.50;99.90;;;;;;4983566;28;20221;-69
2023/10/29 04:28:00;;;;;;;2.53;1.50;;;11.40;99.90;;;;;;4986964;28;20209;-69
2023/10/29 04:30:27;;;;;;;2.38;1.40;;;11.60;99.90;;;;;;5001564;28;20370;-68
2023/10/29 04:32:54;;;;;;;1.73;1.20;;;11.60;99.90;;;;;;4998557;28;20232;-68
2023/10/29 04:35:21;;;;;;;1.25;1.10;;;10.70;99.90;;;;;;5000350;28;20441;-68
2023/10/29 04:37:47;;;;;;;1.27;1.10;;;11.60;99.90;;;;;;5011980;28;20193;-68
2023/10/29 04:40:16;;;;;;;1.63;1.20;;;11.60;99.90;;;;;;4966599;28;20615;-69
2023/10/29 04:42:43;;;;;;;1.13;1.02;;;11.60;99.90;;;;;;5001579;28;20204;-68
2023/10/29 04:45:11;;;;;;;2.45;1.10;;;11.60;99.90;;;;;;4993830;28;20213;-69
2023/10/29 04:47:37;;;;;;;1.52;1.20;;;11.70;99.90;;;;;;5005499;28;20202;-69
2023/10/29 04:50:05;;;;;;;5.07;1.30;;;11.70;99.90;;;;;;4997724;28;20233;-68
2023/10/29 04:52:32;;;;;;;1.33;1.13;;;11.70;99.90;;;;;;5012091;28;20201;-69
2023/10/29 04:55:00;;;;;;;6.20;1.15;;;11.70;99.90;;;;;;5002624;28;20206;-68
2023/10/29 04:57:29;;;;;;;1.20;0.95;;;11.70;99.90;;;;;;4988932;28;20512;-68
2023/10/29 04:59:55;;;;;;;5.13;1.38;;;11.70;99.90;;;;;;4981923;28;20221;-68
2023/10/29 05:02:22;;;;;;;3.83;0.95;;;11.50;99.90;;;;;;5000831;28;20237;-68
2023/10/29 05:04:50;;;;;;;3.47;0.90;;;11.80;99.90;;;;;;5014711;28;20561;-68
2023/10/29 05:07:17;;;;;;;3.17;1.00;;;12.00;99.90;;;;;;5006725;28;20202;-68
2023/10/29 05:09:44;;;;;;;3.95;1.00;;;11.80;99.90;;;;;;5016726;28;20244;-68
2023/10/29 05:12:11;;;;;;;1.27;1.17;;;11.80;99.90;;;;;;4988058;28;20583;-68
2023/10/29 05:14:39;;;;;;;1.50;1.40;;;11.90;99.90;;;;;;5009408;28;20228;-69
2023/10/29 05:17:06;;;;;;;3.90;1.40;;;11.90;99.90;;;;;;4997350;28;20268;-68
2023/10/29 05:19:33;;;;;;;2.95;1.85;;;11.80;99.90;;;;;;5014542;28;20221;-68
2023/10/29 05:22:00;;;;;;;2.83;1.73;;;11.80;99.90;;;;;;5006046;28;20212;-68
2023/10/29 05:24:27;;;;;;;1.75;1.17;;;11.70;99.90;;;;;;5003007;28;21216;-69
2023/10/29 05:26:54;;;;;;;5.07;1.73;;;12.10;99.90;;;;;;4982178;28;20746;-68
2023/10/29 05:29:21;;;;;;;1.73;1.33;;;;;;;;;;5013602;28;20329;-68
2023/10/29 05:31:49;;;;;;;3.58;1.30;;;11.90;99.90;;;;;;5010038;28;20229;-68
2023/10/29 05:34:16;;;;;;;0.90;0.70;;;11.90;99.90;;;;;;5008356;28;21123;-68
2023/10/29 05:36:43;;;;;;;1.13;0.98;;;11.90;99.90;;;;;;5013027;28;20201;-68
2023/10/29 05:39:10;;;;;;;2.10;1.02;;;12.00;99.90;;;;;;5016173;28;20193;-68
2023/10/29 05:41:37;;;;;;;1.13;0.98;;;11.80;99.90;;;;;;4982018;28;20271;-69
2023/10/29 05:44:04;;;;;;;1.33;0.90;;;12.00;99.90;;;;;;5016610;28;20743;-68
2023/10/29 05:46:31;;;;;;;5.25;1.08;;;11.30;99.90;;;;;;4999280;28;21941;-68
2023/10/29 05:48:59;;;;;;;0.63;0.60;;;12.00;99.90;;;;;;5002687;28;20312;-69
2023/10/29 05:51:26;;;;;;;0.70;0.70;;;11.90;99.90;;;;;;5018581;28;20229;-68
2023/10/29 05:53:52;;;;;;;2.97;0.80;;;11.90;99.90;;;;;;5009936;28;20198;-68
2023/10/29 05:56:19;;;;;;;1.80;0.90;;;11.90;99.90;;;;;;5006971;28;20983;-68
2023/10/29 05:58:46;;;;;;;1.80;0.80;;;11.80;99.90;;;;;;4994616;28;20262;-68
2023/10/29 06:01:13;;;;;;;1.05;0.73;;;;;;;;;;5003732;28;20209;-68
2023/10/29 06:03:40;;;;;;;1.60;0.90;;;11.90;99.90;;;;;;5016719;28;20290;-68
2023/10/29 06:06:08;;;;;;;1.20;0.90;;;11.80;99.90;;;;;;5010740;28;20226;-68
2023/10/29 06:08:35;;;;;;;1.60;0.70;;;11.80;99.90;;;;;;5013954;28;20221;-68
2023/10/29 06:11:04;;;;;;;0.70;0.70;;;11.90;99.90;;;;;;5004726;28;20244;-68
2023/10/29 06:13:30;;;;;;;1.85;1.20;;;11.90;99.90;;;;;;4987809;28;20217;-68
2023/10/29 06:15:57;;;;;;;1.67;1.17;;;11.80;99.90;;;;;;5018040;28;20194;-68
2023/10/29 06:18:25;;;;;;;1.20;0.98;;;11.70;99.90;;;;;;5009492;28;21071;-68
2023/10/29 06:20:53;;;;;;;1.25;0.90;;;11.90;99.90;;;;;;5008283;28;20205;-69
2023/10/29 06:23:21;;;;;;;2.45;0.70;;;11.80;99.90;;;;;;5010876;28;20228;-68
2023/10/29 06:25:48;;;;;;;3.38;0.90;;;11.80;99.90;;;;;;5006041;28;20206;-69
2023/10/29 06:28:14;;;;;;;2.90;1.13;;;11.80;99.90;;;;;;4987197;28;20217;-69
2023/10/29 06:30:41;;;;;;;3.05;0.85;;;11.80;99.90;;;;;;5021235;28;20241;-68
2023/10/29 06:33:08;;;;;;;1.67;1.05;;;11.80;99.90;;;;;;5007601;28;20252;-68
2023/10/29 06:35:35;;;;;;;1.70;1.00;;;11.80;99.90;;;;;;5008994;28;20198;-68
2023/10/29 06:38:02;;;;;;;0.70;0.60;;;11.80;99.90;;;;;;5021331;28;20420;-68
2023/10/29 06:40:30;;;;;;;1.88;0.95;;;11.80;99.90;;;;;;5015993;28;20210;-68
2023/10/29 06:42:57;;;;;;;1.15;0.88;;;11.80;99.90;;;;;;5009014;28;20205;-68
2023/10/29 06:45:24;;;;;;;1.38;1.10;;;11.90;99.90;;;;;;4995311;28;20216;-68
2023/10/29 06:47:50;;;;;;;2.45;0.70;;;11.90;99.90;;;;;;5006503;28;20216;-68
2023/10/29 06:50:18;;;;;;;0.93;0.80;;;12.70;99.90;;;;;;5003331;28;20225;-68
2023/10/29 06:52:45;;;;;;;1.70;0.90;;;11.90;99.90;;;;;;5019673;28;20202;-68
2023/10/29 06:55:12;;;;;;;1.38;0.60;;;11.80;99.90;;;;;;5009249;28;20209;-68
2023/10/29 06:57:40;;;;;;;2.92;1.00;;;12.00;99.90;;;;;;5011746;28;20212;-68
2023/10/29 07:00:08;;;;;;;0.68;0.68;;;12.30;99.90;;;;;;4988699;28;20213;-68
2023/10/29 07:02:35;;;;;;;0.90;0.85;;;12.20;99.90;;;;;;5012479;28;20213;-68
2023/10/29 07:05:02;;;;;;;5.07;0.93;;;12.10;99.90;;;;;;5006473;28;20697;-68
2023/10/29 07:07:29;;;;;;;1.27;0.93;;;12.40;99.90;;;;;;5010915;28;20205;-68
2023/10/29 07:09:56;;;;;;;4.78;1.00;;;12.20;99.90;;;;;;5010611;28;20930;-68
2023/10/29 07:12:23;;;;;;;3.65;1.15;;;12.00;99.90;;;;;;5017290;28;21067;-68
2023/10/29 07:14:51;;;;;;;1.35;0.90;;;12.20;99.90;;;;;;4978389;28;20225;-68
2023/10/29 07:17:18;;;;;;;0.90;0.70;;;12.30;99.90;;;;;;5013818;28;20205;-69
2023/10/29 07:19:46;;;;;;;2.90;1.63;;;12.30;99.90;;;;;;5001618;28;20217;-68
2023/10/29 07:22:13;;;;;;;1.20;0.77;;;12.40;99.90;;;;;;4998032;28;21018;-68
2023/10/29 07:24:40;;;;;;;1.58;0.98;;;12.40;99.90;;;;;;5004514;28;20587;-68
2023/10/29 07:27:07;;;;;;;1.27;0.88;;;12.50;99.90;;;;;;5023034;28;20217;-69
2023/10/29 07:29:34;;;;;;;2.25;0.80;;;11.40;99.90;;;;;;4981785;28;20205;-69
2023/10/29 07:32:02;;;;;;;2.55;0.90;;;12.40;99.90;;;;;;5017767;28;20229;-69
2023/10/29 07:34:28;;;;;;;1.42;0.80;;;12.90;99.90;;;;;;5010371;28;20209;-69
2023/10/29 07:36:55;;;;;;;0.73;0.70;;;12.30;99.90;;;;;;5001930;28;20208;-69
2023/10/29 07:39:22;;;;;;;1.77;0.90;;;12.30;99.90;;;;;;5012064;28;20236;-69
2023/10/29 07:41:49;;;;;;;2.85;1.13;;;12.30;99.90;;;;;;5015903;28;20212;-69
2023/10/29 07:44:16;;;;;;;3.03;1.05;;;11.90;99.90;;;;;;5000267;28;20245;-68
2023/10/29 07:46:43;;;;;;;1.35;0.90;;;12.40;99.90;;;;;;4974797;28;20310;-69
2023/10/29 07:49:11;;;;;;;0.93;0.80;;;12.50;99.90;;;;;;5003447;28;20920;-69
2023/10/29 07:51:37;;;;;;;2.60;1.00;;;12.50;99.90;;;;;;5000126;28;20225;-69
2023/10/29 07:54:05;;;;;;;1.80;1.02;;;12.50;99.90;;;;;;4993653;28;20225;-69
2023/10/29 07:56:32;;;;;;;1.98;0.98;;;12.60;99.90;;;;;;5003179;28;20253;-69
2023/10/29 07:58:59;;;;;;;1.02;0.80;;;;;;;;;;5018069;28;20204;-69
2023/10/29 08:01:27;;;;;;;1.55;1.30;;;;;;;;;;4975231;28;22423;-69
2023/10/29 08:03:55;;;;;;;0.90;0.90;;;12.70;99.90;;;;;;4980678;28;20336;-69
2023/10/29 08:06:24;;;;;;;1.08;0.98;;;12.60;99.90;;;;;;5001485;28;20208;-69
2023/10/29 08:08:51;;;;;;;1.05;0.80;;;12.70;99.90;;;;;;4981624;28;20229;-70
2023/10/29 08:11:19;;;;;;;2.85;1.10;;;12.50;99.90;;;;;;4992319;28;20228;-69
2023/10/29 08:13:46;;;;;;;1.45;0.85;;;12.70;99.90;;;;;;5012178;28;20647;-69
2023/10/29 08:16:14;;;;;;;5.15;1.00;;;12.80;99.90;;;;;;4981511;28;24270;-69
2023/10/29 08:18:41;;;;;;;0.60;0.60;;;12.80;99.90;;;;;;4982559;28;20240;-69
2023/10/29 08:21:08;;;;;;;2.38;0.77;;;13.00;99.90;;;;;;5004540;28;20240;-69
2023/10/29 08:23:36;;;;;;;1.70;1.00;;;12.90;99.90;;;;;;4991027;28;20703;-69
2023/10/29 08:26:03;;;;;;;2.38;1.05;;;13.00;99.90;;;;;;5000277;28;20209;-69
2023/10/29 08:28:31;;;;;;;2.08;1.02;;;13.00;99.90;;;;;;5011057;28;21632;-69
2023/10/29 08:30:58;;;;;;;0.80;0.75;;;13.10;99.90;;;;;;5015052;28;20225;-69
2023/10/29 08:33:24;;;;;;;2.78;0.65;;;13.00;99.90;;;;;;4980509;28;20260;-69
2023/10/29 08:35:51;;;;;;;2.80;1.02;;;13.00;99.90;;;;;;5019143;28;20212;-69
2023/10/29 08:38:19;;;;;;;3.03;1.10;;;10.50;99.90;;;;;;4988373;28;20198;-69
2023/10/29 08:40:47;;;;;;;2.83;1.10;;;13.10;99.90;;;;;;5000231;28;20312;-69
2023/10/29 08:43:14;;;;;;;1.13;0.70;;;13.10;99.90;;;;;;5010086;28;20222;-69
2023/10/29 08:45:41;;;;;;;3.28;0.88;;;13.10;99.90;;;;;;4992996;28;20221;-70
2023/10/29 08:48:08;;;;;;;2.00;0.75;;;13.00;99.90;;;;;;4976502;28;20237;-70
2023/10/29 08:50:35;;;;;;;0.88;0.68;;;13.00;99.90;;;;;;5000867;28;20709;-70
2023/10/29 08:53:02;;;;;;;0.85;0.60;;;13.10;99.90;;;;;;5000711;28;20706;-70
2023/10/29 08:55:29;;;;;;;2.65;0.80;;;13.40;99.90;;;;;;4993296;28;20435;-69
2023/10/29 08:57:57;;;;;;;0.98;0.70;;;13.60;99.90;;;;;;5016595;28;20898;-69
2023/10/29 09:00:24;;;;;;;1.00;0.73;;;13.00;99.90;;;;;;4996133;28;20193;-69
2023/10/29 09:02:52;;;;;;;2.05;1.23;;;13.10;99.90;;;;;;4983100;28;20225;-69
2023/10/29 09:05:19;;;;;;;0.95;0.80;;;13.00;99.90;;;;;;4955046;28;21116;-69
2023/10/29 09:07:46;;;;;;;1.80;0.90;;;13.40;99.90;;;;;;5001153;28;20226;-69
2023/10/29 09:10:12;;;;;;;2.17;0.70;;;13.50;99.90;;;;;;5001682;28;20586;-69
2023/10/29 09:12:39;;;;;;;0.63;0.52;;;13.60;99.90;;;;;;4997432;28;20240;-69
2023/10/29 09:15:09;;;;;;;0.85;0.60;;;13.40;99.90;;;;;;5013926;28;20225;-69
2023/10/29 09:17:36;;;;;;;3.13;0.80;;;13.20;99.90;;;;;;5012797;28;20723;-69
2023/10/29 09:20:04;;;;;;;1.83;0.90;;;13.20;99.90;;;;;;4970072;28;20213;-69
2023/10/29 09:22:32;;;;;;;1.10;0.63;;;13.20;99.90;;;;;;5019159;28;20287;-69
2023/10/29 09:24:59;;;;;;;1.55;0.88;;;13.20;99.90;;;;;;4990353;28;20236;-69
2023/10/29 09:27:26;;;;;;;1.50;0.82;;;13.20;99.90;;;;;;4987649;28;20225;-69
2023/10/29 09:29:53;;;;;;;0.68;0.68;;;13.20;99.90;;;;;;5002208;28;20217;-69
2023/10/29 09:32:23;;;;;;;0.45;0.45;;;13.20;99.90;;;;;;4991865;28;20249;-69
2023/10/29 09:34:51;;;;;;;1.40;0.60;;;13.30;99.90;;;;;;4980799;28;20213;-69
2023/10/29 09:37:18;;;;;;;2.60;0.90;;;13.20;99.90;;;;;;5012172;28;20233;-69
2023/10/29 09:39:45;;;;;;;2.88;1.50;;;13.70;99.90;;;;;;4971984;28;20226;-69
2023/10/29 09:42:17;;;;;;;2.03;1.05;;;13.30;99.90;;;;;;4995180;28;20697;-69
2023/10/29 09:44:50;;;;;;;3.50;1.13;;;13.40;99.90;;;;;;5012783;28;20224;-69
2023/10/29 09:47:18;;;;;;;3.20;0.80;;;13.40;99.90;;;;;;4996357;28;20223;-69
2023/10/29 09:49:47;;;;;;;1.90;0.60;;;13.40;99.90;;;;;;4988682;28;20611;-69
2023/10/29 09:52:16;;;;;;;1.60;0.85;;;13.40;99.90;;;;;;4970662;28;20229;-69
2023/10/29 09:54:46;;;;;;;5.68;1.13;;;13.40;99.90;;;;;;4990386;28;20202;-69
2023/10/29 09:57:13;;;;;;;3.67;1.00;;;13.50;99.90;;;;;;5002165;28;20244;-69
2023/10/29 09:59:40;;;;;;;1.88;0.93;;;13.60;99.90;;;;;;5000687;28;20236;-69
2023/10/29 10:02:08;;;;;;;0.60;0.60;;;13.60;99.90;;;;;;5016539;28;20228;-69
2023/10/29 10:04:38;;;;;;;2.38;0.75;;;13.60;99.90;;;;;;4998628;28;20225;-69
2023/10/29 10:07:06;;;;;;;3.25;1.00;;;13.60;99.90;;;;;;4978851;28;20233;-69
2023/10/29 10:09:51;;;;;;;4.30;0.73;;;13.60;99.90;;;;;;5003165;28;20245;-69
2023/10/29 10:12:18;;;;;;;2.38;0.80;;;13.70;99.90;;;;;;4995637;28;20845;-69
2023/10/29 10:14:46;;;;;;;2.15;0.70;;;13.70;99.90;;;;;;4999544;28;20835;-69
2023/10/29 10:17:14;;;;;;;5.13;0.70;;;14.60;99.90;;;;;;5013113;28;20233;-69
2023/10/29 10:19:41;;;;;;;4.05;0.90;;;13.90;99.90;;;;;;5005012;28;20214;-69
2023/10/29 10:22:10;;;;;;;2.75;1.15;;;14.10;99.90;;;;;;4984601;28;21082;-69
2023/10/29 10:24:38;;;;;;;1.65;0.80;;;13.90;99.90;;;;;;5013801;28;20205;-69
2023/10/29 10:27:05;;;;;;;4.78;1.58;;;14.30;99.90;;;;;;4980020;28;21470;-69
2023/10/29 10:29:33;;;;;;;3.72;1.15;;;13.90;99.90;;;;;;4998332;28;20229;-69
2023/10/29 10:32:02;;;;;;;3.53;1.10;;;13.90;99.90;;;;;;4995690;28;22267;-69
2023/10/29 10:34:30;;;;;;;3.80;1.10;;;13.90;99.90;;;;;;4998015;28;20245;-69
2023/10/29 10:37:00;;;;;;;4.75;1.33;;;15.00;99.90;;;;;;4988687;28;20202;-69
2023/10/29 10:39:31;;;;;;;2.78;0.80;;;14.00;99.90;;;;;;5000143;28;20238;-69
2023/10/29 10:42:00;;;;;;;1.75;0.80;;;14.00;99.90;;;;;;4987367;28;20202;-69
2023/10/29 10:44:29;;;;;;;0.60;0.60;;;14.10;99.90;;;;;;4997182;28;20316;-69
2023/10/29 10:47:02;;;;;;;3.30;0.88;;;14.00;99.90;;;;;;5003279;28;20840;-69
2023/10/29 10:49:31;;;;;;;2.65;0.82;;;13.90;99.90;;;;;;5009368;28;20198;-69
2023/10/29 10:52:01;;;;;;;4.80;0.80;;;14.00;99.90;;;;;;4983539;28;20234;-69
2023/10/29 10:54:30;;;;;;;5.78;1.23;;;14.10;99.90;;;;;;4975246;28;20230;-69
2023/10/29 10:56:57;;;;;;;2.22;0.88;;;14.10;99.90;;;;;;4974950;28;21272;-69
2023/10/29 10:59:24;;;;;;;3.47;0.90;;;14.20;99.90;;;;;;4995684;28;20232;-69
2023/10/29 11:01:51;;;;;;;1.48;1.10;;;13.90;99.90;;;;;;4986428;28;20343;-70
2023/10/29 11:04:18;;;;;;;3.75;1.60;;;14.20;99.90;;;;;;4996916;28;20224;-70
2023/10/29 11:06:45;;;;;;;4.15;1.08;;;14.20;99.90;;;;;;4979883;28;21451;-70
2023/10/29 11:09:14;;;;;;;3.92;0.98;;;14.20;99.90;;;;;;4971585;28;20617;-69
2023/10/29 11:11:47;;;;;;;6.53;1.27;;;14.50;99.90;;;;;;4995455;28;20225;-69
2023/10/29 11:14:17;;;;;;;2.60;0.95;;;14.30;99.90;;;;;;4987922;28;20209;-69
2023/10/29 11:16:49;;;;;;;3.50;1.15;;;14.40;99.90;;;;;;4983907;28;20267;-69
2023/10/29 11:19:41;;;;;;;4.15;0.85;;;14.40;99.90;;;;;;5004030;28;20919;-69
2023/10/29 11:22:16;;;;;;;3.63;0.93;;;14.50;99.90;;;;;;4999764;28;20400;-69
2023/10/29 11:24:43;;;;;;;2.10;0.70;;;14.50;99.90;;;;;;4978487;28;20630;-69
2023/10/29 11:27:37;;;;;;;4.22;1.02;;;14.50;99.90;;;;;;5002953;28;20217;-69
2023/10/29 11:30:15;;;;;;;2.35;1.05;;;14.50;99.90;;;;;;4993868;28;20235;-69
2023/10/29 11:32:43;;;;;;;2.00;0.57;;;14.50;99.90;;;;;;5010253;28;20233;-69
2023/10/29 11:35:21;;;;;;;5.55;1.33;;;14.30;99.90;;;;;;5010363;28;20204;-69
2023/10/29 11:37:49;;;;;;;1.88;0.93;;;14.30;99.90;;;;;;5002743;28;20227;-68
2023/10/29 11:40:33;;;;;;;4.90;1.30;;;14.40;99.90;;;;;;4990163;28;20933;-69
2023/10/29 11:43:18;;;;;;;2.25;0.88;;;14.40;99.90;;;;;;4994384;28;20743;-69
2023/10/29 11:45:57;;;;;;;1.10;0.70;;;14.40;99.90;;;;;;5004535;28;20197;-69
2023/10/29 11:48:24;;;;;;;3.13;0.98;;;14.10;99.90;;;;;;4999367;28;20232;-69
2023/10/29 11:51:19;;;;;;;3.28;0.90;;;14.40;99.90;;;;;;5019805;28;20258;-69
2023/10/29 11:53:47;;;;;;;7.47;1.05;;;14.40;99.90;;;;;;5007919;28;20231;-69
2023/10/29 11:56:14;;;;;;;1.85;0.90;;;14.40;99.90;;;;;;4978762;28;20986;-69
2023/10/29 11:58:42;;;;;;;4.82;1.20;;;14.40;99.90;;;;;;4989752;28;20221;-69
2023/10/29 12:01:09;;;;;;;4.50;1.15;;;14.40;99.90;;;;;;4996876;28;20206;-69
2023/10/29 12:03:36;;;;;;;3.17;0.85;;;14.30;99.90;;;;;;4994422;28;20201;-68
2023/10/29 12:06:03;;;;;;;2.50;1.48;;;14.40;99.90;;;;;;5003945;28;21106;-69
2023/10/29 12:08:32;;;;;;;8.30;1.50;;;14.40;99.90;;;;;;5009034;28;20232;-69
2023/10/29 12:10:59;;;;;;;6.95;1.25;;;14.70;99.90;;;;;;4978353;28;20201;-68
2023/10/29 12:13:39;;;;;;;3.85;1.20;;;14.40;99.90;;;;;;4999913;28;21127;-69
2023/10/29 12:16:08;;;;;;;5.47;1.13;;;14.50;99.90;;;;;;5008931;28;20205;-69
2023/10/29 12:18:36;;;;;;;3.05;1.30;;;14.80;99.90;;;;;;4984880;28;20212;-69
2023/10/29 12:21:07;;;;;;;4.07;1.00;;;14.10;99.90;;;;;;4999670;28;20307;-69
2023/10/29 12:23:35;;;;;;;8.27;1.50;;;14.60;99.90;;;;;;5003736;28;20331;-69
2023/10/29 12:26:04;;;;;;;2.72;1.30;;;14.50;99.90;;;;;;4978787;28;20277;-69
2023/10/29 12:28:32;;;;;;;5.25;1.50;;;14.60;99.90;;;;;;4998802;28;20225;-69
2023/10/29 12:30:59;;;;;;;1.50;0.90;;;14.60;99.90;;;;;;4987216;28;20225;-69
2023/10/29 12:33:31;;;;;;;4.60;1.05;;;14.60;99.90;;;;;;5004293;28;21141;-69
2023/10/29 12:36:00;;;;;;;4.18;1.20;;;14.50;99.90;;;;;;5007947;28;20202;-69
2023/10/29 12:38:26;;;;;;;4.32;1.15;;;14.50;99.90;;;;;;4994012;28;20202;-69
2023/10/29 12:41:05;;;;;;;3.28;1.23;;;14.50;99.90;;;;;;4973720;28;20218;-69
2023/10/29 12:43:36;;;;;;;1.23;0.50;;;14.50;99.90;;;;;;4988697;28;20697;-69
2023/10/29 12:46:05;;;;;;;3.38;1.10;;;14.50;99.90;;;;;;4995236;28;20229;-69
2023/10/29 12:48:33;;;;;;;4.22;1.05;;;12.60;99.90;;;;;;4993769;28;20212;-69
2023/10/29 12:51:00;;;;;;;4.43;1.20;;;14.50;99.90;;;;;;5004340;28;20207;-69
2023/10/29 12:53:28;;;;;;;4.03;1.42;;;14.50;99.90;;;;;;4996819;28;20717;-70